Time;durP1;ratioP1;P1;durP2;ratioP2;P2;SDS_P1;SDS_P2;PMS_P1;PMS_P2;Temp;Humidity;BMP_temperature;BMP_pressure;BME280_temperature;BME280_humidity;BME280_pressure;Samples;Min_cycle;Max_cycle;Signal;HPM_P1;HPM_P2
2021/04/25 15:29:03;;;;;;;0.70;0.50;;;;;;;12.05;25.59;101740.81;5112336;27;20522;-63
2021/04/25 15:31:28;;;;;;;0.50;0.50;;;;;;;10.91;27.13;101715.31;5093006;28;20177;-65
2021/04/25 15:33:54;;;;;;;0.70;0.70;;;;;;;10.11;28.38;101721.97;5111330;28;20235;-65
2021/04/25 15:36:19;;;;;;;0.50;0.50;;;;;;;10.51;28.30;101732.03;5111232;28;20224;-66
2021/04/25 15:38:44;;;;;;;1.13;0.60;;;;;;;8.98;29.89;101720.53;5110992;28;20252;-66
2021/04/25 15:41:10;;;;;;;3.77;0.70;;;;;;;9.07;30.08;101751.31;5098625;22;20227;-69
2021/04/25 15:43:35;;;;;;;1.10;0.80;;;;;;;9.63;30.10;101740.56;5049790;28;20190;-69
2021/04/25 15:46:00;;;;;;;1.20;0.50;;;;;;;8.74;31.11;101739.94;5050244;28;20182;-68
2021/04/25 15:48:26;;;;;;;5.20;1.00;;;;;;;9.26;31.44;101747.13;5051894;28;20172;-68
2021/04/25 15:50:51;;;;;;;1.70;0.43;;;;;;;8.93;32.38;101741.13;5060403;28;20551;-66
2021/04/25 15:53:17;;;;;;;0.77;0.67;;;;;;;9.01;31.28;101744.41;5072416;28;20206;-66
2021/04/25 15:55:43;;;;;;;0.70;0.50;;;;;;;8.41;31.88;101733.84;5071720;28;20175;-68
2021/04/25 15:58:10;;;;;;;4.27;1.00;;;;;;;8.26;31.65;101727.16;5070723;28;20575;-72
2021/04/25 16:00:36;;;;;;;3.47;0.60;;;;;;;8.21;32.43;101734.41;5069776;28;20202;-72
2021/04/25 16:03:01;;;;;;;1.83;0.70;;;;;;;9.13;31.29;101731.59;5071685;28;20163;-71
2021/04/25 16:05:27;;;;;;;1.27;0.87;;;;;;;9.54;30.58;101743.53;5069909;28;20173;-71
2021/04/25 16:07:52;;;;;;;1.93;0.60;;;;;;;10.47;29.17;101740.22;5086616;28;20655;-72
2021/04/25 16:10:21;;;;;;;5.57;1.00;;;;;;;10.65;27.87;101732.34;5069308;28;20241;-71
2021/04/25 16:12:47;;;;;;;1.40;0.60;;;;;;;9.54;29.60;101739.09;5070339;28;20178;-71
2021/04/25 16:15:13;;;;;;;1.17;0.70;;;;;;;8.67;31.53;101743.72;5068572;28;20181;-71
2021/04/25 16:17:39;;;;;;;2.63;0.67;;;;;;;8.01;32.27;101744.72;5068365;28;20687;-71
2021/04/25 16:20:06;;;;;;;1.50;1.00;;;;;;;7.66;32.74;101751.84;5068536;28;20249;-70
2021/04/25 16:22:31;;;;;;;0.93;0.60;;;;;;;7.74;32.82;101744.53;5068190;28;20274;-71
2021/04/25 16:24:56;;;;;;;1.07;0.60;;;;;;;8.95;31.32;101754.38;5069392;28;20202;-71
2021/04/25 16:27:22;;;;;;;0.47;0.40;;;;;;;11.09;27.96;101755.56;5069211;28;20171;-72
2021/04/25 16:29:47;;;;;;;1.43;0.70;;;;;;;11.61;27.16;101748.06;5051331;28;20183;-70
2021/04/25 16:32:12;;;;;;;1.23;0.80;;;;;;;11.59;27.07;101738.31;5067862;28;20217;-71
2021/04/25 16:34:39;;;;;;;0.40;0.40;;;;;;;10.98;27.99;101745.31;5068553;28;20171;-71
2021/04/25 16:37:04;;;;;;;1.30;0.50;;;;;;;11.08;28.08;101741.31;5068306;28;20276;-71
2021/04/25 16:39:31;;;;;;;0.80;0.50;;;;;;;10.19;29.74;101725.19;5059765;28;20225;-73
2021/04/25 16:41:56;;;;;;;0.50;0.40;;;;;;;9.91;30.85;101746.66;5054281;28;20560;-71
2021/04/25 16:44:21;;;;;;;1.90;0.80;;;;;;;8.84;32.45;101743.19;5056261;28;20168;-72
2021/04/25 16:46:47;;;;;;;0.73;0.50;;;;;;;8.60;32.61;101766.09;5055681;28;20168;-73
2021/04/25 16:49:14;;;;;;;3.80;0.77;;;;;;;7.98;34.79;101758.97;5055852;28;20172;-74
2021/04/25 16:51:39;;;;;;;0.87;0.57;;;;;;;7.69;35.79;101765.06;5054412;28;20195;-71
2021/04/25 16:54:05;;;;;;;1.33;0.63;;;;;;;7.25;36.77;101747.59;5054227;28;20678;-75
2021/04/25 16:56:32;;;;;;;1.67;0.90;;;;;;;6.87;37.41;101752.03;5054176;28;20266;-71
2021/04/25 16:58:57;;;;;;;1.20;0.67;;;;;;;6.79;36.90;101756.66;5055534;28;20203;-71
2021/04/25 17:01:23;;;;;;;2.67;0.60;;;;;;;6.68;37.69;101763.09;5056055;28;20214;-70
2021/04/25 17:03:48;;;;;;;0.90;0.60;;;;;;;6.55;37.86;101755.41;5057770;28;20180;-73
2021/04/25 17:06:13;;;;;;;0.70;0.70;;;;;;;6.52;38.56;101768.72;5038475;28;20176;-74
2021/04/25 17:08:38;;;;;;;0.60;0.50;;;;;;;6.53;38.96;101770.47;5056218;28;20172;-70
2021/04/25 17:11:04;;;;;;;1.30;0.67;;;;;;;7.28;37.91;101765.25;5055554;28;20191;-70
2021/04/25 17:13:29;;;;;;;0.87;0.50;;;;;;;8.13;36.46;101771.81;5054472;28;20186;-72
2021/04/25 17:15:55;;;;;;;0.70;0.60;;;;;;;8.21;35.85;101765.44;5054359;28;20224;-71
2021/04/25 17:18:20;;;;;;;2.70;0.70;;;;;;;8.38;35.64;101764.06;5056060;28;20633;-72
2021/04/25 17:20:46;;;;;;;2.40;0.60;;;;;;;8.48;35.21;101756.69;5053597;28;20654;-72
2021/04/25 17:23:12;;;;;;;3.33;0.87;;;;;;;7.86;36.05;101769.06;5054936;28;20171;-71
2021/04/25 17:25:37;;;;;;;2.57;0.67;;;;;;;8.02;36.03;101781.03;5053702;28;20186;-71
2021/04/25 17:28:04;;;;;;;1.37;0.50;;;;;;;7.69;36.94;101772.16;5054740;28;20631;-69
2021/04/25 17:30:30;;;;;;;1.50;0.80;;;;;;;7.73;37.32;101768.50;5055448;28;20199;-69
2021/04/25 17:32:55;;;;;;;1.53;0.90;;;;;;;7.02;38.97;101766.72;5053984;28;20589;-69
2021/04/25 17:35:22;;;;;;;2.20;0.60;;;;;;;6.71;39.90;101781.63;5053724;28;20209;-70
2021/04/25 17:37:47;;;;;;;2.37;0.60;;;;;;;6.36;40.27;101767.31;5054016;28;20585;-68
2021/04/25 17:40:15;;;;;;;1.33;0.57;;;;;;;6.16;41.21;101772.13;5053912;28;20209;-68
2021/04/25 17:42:40;;;;;;;2.80;0.73;;;;;;;6.17;41.43;101779.19;5055795;28;20582;-68
2021/04/25 17:45:06;;;;;;;1.00;0.70;;;;;;;6.16;40.48;101774.78;5056967;28;20255;-69
2021/04/25 17:47:32;;;;;;;2.47;0.70;;;;;;;6.14;41.42;101781.91;5055933;28;20261;-68
2021/04/25 17:49:57;;;;;;;2.27;0.80;;;;;;;5.95;41.70;101779.63;5053575;28;20173;-69
2021/04/25 17:52:22;;;;;;;3.03;0.80;;;;;;;5.94;41.96;101777.84;5055159;28;20203;-67
2021/04/25 17:54:48;;;;;;;3.10;0.73;;;;;;;5.89;41.28;101797.34;5058133;28;20225;-68
2021/04/25 17:57:13;;;;;;;3.27;0.80;;;;;;;5.93;41.38;101799.06;5056430;28;20210;-71
2021/04/25 17:59:38;;;;;;;4.10;0.73;;;;;;;5.81;42.07;101799.28;5055265;28;20171;-69
2021/04/25 18:02:04;;;;;;;2.10;0.77;;;;;;;5.62;42.37;101799.59;5054630;28;20532;-69
2021/04/25 18:04:29;;;;;;;1.87;0.60;;;;;;;5.61;42.43;101795.22;5054167;28;20686;-69
2021/04/25 18:06:54;;;;;;;1.60;0.80;;;;;;;5.62;42.61;101802.25;5053462;28;20176;-71
2021/04/25 18:09:20;;;;;;;1.87;0.63;;;;;;;5.45;43.58;101795.47;5053669;28;20180;-71
2021/04/25 18:11:45;;;;;;;0.90;0.50;;;;;;;5.41;43.41;101794.66;5055060;28;20192;-73
2021/04/25 18:14:10;;;;;;;1.37;0.50;;;;;;;5.31;44.07;101799.22;5054483;28;20583;-72
2021/04/25 18:16:36;;;;;;;1.60;0.63;;;;;;;5.18;43.87;101797.66;5054944;28;20226;-71
2021/04/25 18:19:01;;;;;;;3.97;0.70;;;;;;;5.11;43.87;101801.28;5054141;28;20199;-70
2021/04/25 18:21:26;;;;;;;2.23;0.67;;;;;;;5.08;44.03;101804.00;5053841;28;20202;-71
2021/04/25 18:23:52;;;;;;;2.20;1.00;;;;;;;4.97;44.08;101812.09;5054408;28;20207;-71
2021/04/25 18:26:18;;;;;;;1.73;0.77;;;;;;;4.87;45.22;101810.47;5053806;28;20196;-72
2021/04/25 18:28:43;;;;;;;2.43;0.90;;;;;;;4.80;44.79;101805.28;5054070;28;20179;-70
2021/04/25 18:31:09;;;;;;;1.90;0.80;;;;;;;4.75;45.25;101817.69;5053209;28;20188;-70
2021/04/25 18:33:34;;;;;;;3.53;0.80;;;;;;;4.70;45.84;101813.34;5036737;28;20631;-66
2021/04/25 18:36:00;;;;;;;2.30;0.53;;;;;;;4.65;45.73;101822.22;5054793;28;20539;-68
2021/04/25 18:38:26;;;;;;;1.83;0.70;;;;;;;4.60;46.11;101818.78;5053960;28;20270;-71
2021/04/25 18:40:55;;;;;;;4.30;1.07;;;;;;;4.57;46.15;101810.88;5053538;28;20242;-68
2021/04/25 18:43:20;;;;;;;1.20;0.70;;;;;;;4.48;46.06;101822.44;5035741;28;20167;-66
2021/04/25 18:45:46;;;;;;;1.30;0.70;;;;;;;4.50;46.03;101825.94;5053617;28;20171;-66
2021/04/25 18:48:12;;;;;;;0.90;0.80;;;;;;;4.46;46.70;101821.59;5052311;28;20171;-67
2021/04/25 18:50:39;;;;;;;2.27;0.70;;;;;;;4.41;47.19;101831.31;5053284;28;20195;-67
2021/04/25 18:53:05;;;;;;;1.30;0.83;;;;;;;4.38;47.41;101831.34;5053999;28;20536;-68
2021/04/25 18:55:31;;;;;;;2.17;1.00;;;;;;;4.32;47.44;101832.31;5052665;28;20683;-68
2021/04/25 18:57:57;;;;;;;5.23;1.00;;;;;;;4.28;47.51;101833.25;5054091;28;20198;-70
2021/04/25 19:00:37;;;;;;;3.73;1.00;;;;;;;4.21;47.65;101831.56;5054163;28;20191;-67
2021/04/25 19:03:03;;;;;;;3.03;0.90;;;;;;;4.14;47.90;101834.28;5053558;28;20179;-70
2021/04/25 19:05:28;;;;;;;4.63;1.07;;;;;;;4.18;47.48;101836.00;5069313;28;20171;-71
2021/04/25 19:07:54;;;;;;;1.17;0.80;;;;;;;4.12;47.81;101831.66;5054075;28;20225;-72
2021/04/25 19:10:19;;;;;;;5.80;0.90;;;;;;;4.14;47.96;101840.44;5053847;28;20248;-71
2021/04/25 19:12:45;;;;;;;2.90;0.70;;;;;;;4.07;48.06;101844.91;5054011;28;20175;-72
2021/04/25 19:15:17;;;;;;;2.67;1.07;;;;;;;3.99;47.98;101849.38;5054244;28;20175;-71
2021/04/25 19:17:42;;;;;;;5.47;1.00;;;;;;;3.97;48.34;101845.00;5053824;28;20190;-73
2021/04/25 19:20:09;;;;;;;1.43;0.80;;;;;;;3.91;48.53;101839.78;5052818;28;20195;-71
2021/04/25 19:22:34;;;;;;;1.77;0.97;;;;;;;3.91;48.26;101842.44;5052468;28;20219;-70
2021/04/25 19:25:01;;;;;;;0.90;0.60;;;;;;;3.89;48.48;101839.81;5069474;28;20558;-71
2021/04/25 19:27:26;;;;;;;3.30;1.07;;;;;;;3.75;48.21;101832.03;5053689;28;20693;-71
2021/04/25 19:29:52;;;;;;;4.00;1.10;;;;;;;3.74;48.89;101832.03;5052647;28;20175;-71
2021/04/25 19:32:17;;;;;;;1.50;0.83;;;;;;;3.78;48.94;101825.84;5053845;28;20552;-72
2021/04/25 19:34:42;;;;;;;6.27;1.07;;;;;;;3.65;49.36;101832.97;5054154;28;20172;-72
2021/04/25 19:37:08;;;;;;;4.27;0.90;;;;;;;3.60;49.36;101834.78;5052835;28;20191;-71
2021/04/25 19:39:33;;;;;;;2.07;0.80;;;;;;;3.59;49.63;101829.50;5052805;28;20536;-71
2021/04/25 19:41:58;;;;;;;2.30;1.00;;;;;;;3.51;49.67;101826.94;5053218;28;20203;-70
2021/04/25 19:44:25;;;;;;;1.70;0.90;;;;;;;3.53;49.71;101824.28;5036398;28;20659;-71
2021/04/25 19:46:51;;;;;;;0.90;0.83;;;;;;;3.42;50.17;101830.53;5052718;28;20262;-69
2021/04/25 19:49:16;;;;;;;3.37;1.10;;;;;;;3.27;50.78;101830.63;5053634;28;20195;-70
2021/04/25 19:51:41;;;;;;;5.97;1.97;;;;;;;3.19;51.07;101827.19;5053285;28;20560;-69
2021/04/25 19:54:07;;;;;;;3.53;1.47;;;;;;;3.12;50.84;101826.34;5035272;28;20178;-70
2021/04/25 19:56:33;;;;;;;3.07;1.70;;;;;;;3.24;51.18;101829.78;5052109;28;20175;-70
2021/04/25 19:58:58;;;;;;;5.67;1.37;;;;;;;3.15;51.63;101820.16;5052644;28;20203;-69
2021/04/25 20:01:23;;;;;;;6.00;1.50;;;;;;;3.11;51.74;101821.09;5051691;28;20237;-71
2021/04/25 20:03:49;;;;;;;2.67;1.10;;;;;;;3.04;51.77;101827.28;5053394;28;20632;-70
2021/04/25 20:06:14;;;;;;;3.10;1.13;;;;;;;3.00;51.72;101828.19;5052041;28;20236;-70
2021/04/25 20:08:39;;;;;;;2.93;1.20;;;;;;;2.99;51.74;101826.44;5053674;28;20643;-71
2021/04/25 20:11:05;;;;;;;2.80;1.10;;;;;;;3.04;51.72;101816.75;5051933;28;20203;-71
2021/04/25 20:13:31;;;;;;;4.00;0.83;;;;;;;3.04;51.59;101825.53;5051613;28;20175;-71
2021/04/25 20:15:57;;;;;;;4.97;1.57;;;;;;;2.97;51.75;101817.63;5056741;28;20181;-70
2021/04/25 20:18:23;;;;;;;5.13;2.47;;;;;;;2.90;52.39;101815.91;5056747;28;20200;-70
2021/04/25 20:20:50;;;;;;;3.17;1.60;;;;;;;2.82;52.47;101822.13;5055130;28;20227;-70
2021/04/25 20:23:17;;;;;;;1.17;1.00;;;;;;;2.86;52.55;101822.09;5056270;28;20186;-71
2021/04/25 20:25:42;;;;;;;2.30;0.90;;;;;;;2.87;52.34;101816.81;5071739;28;20175;-70
2021/04/25 20:28:10;;;;;;;4.97;1.10;;;;;;;2.84;52.87;101816.84;5055980;28;20223;-70
2021/04/25 20:30:39;;;;;;;2.67;1.20;;;;;;;2.79;52.91;101822.16;5056799;28;20242;-71
2021/04/25 20:33:05;;;;;;;4.63;1.20;;;;;;;2.81;52.75;101825.66;5057393;28;20164;-69
2021/04/25 20:35:30;;;;;;;2.63;0.90;;;;;;;2.71;53.32;101815.16;5056443;28;20171;-70
2021/04/25 20:37:56;;;;;;;3.47;1.17;;;;;;;2.72;53.81;101809.88;5055935;28;20668;-68
2021/04/25 20:40:26;;;;;;;3.30;1.20;;;;;;;2.79;53.48;101814.22;5055993;28;20294;-69
2021/04/25 20:42:51;;;;;;;5.63;1.10;;;;;;;2.82;53.42;101803.66;5054944;28;20643;-72
2021/04/25 20:45:17;;;;;;;2.10;1.00;;;;;;;2.79;53.44;101806.31;5038186;28;20186;-71
2021/04/25 20:47:44;;;;;;;2.20;1.00;;;;;;;2.76;53.48;101802.81;5056377;28;20258;-72
2021/04/25 20:50:09;;;;;;;3.03;1.23;;;;;;;2.77;53.75;101800.19;5071879;28;20226;-71
2021/04/25 20:52:34;;;;;;;4.20;1.40;;;;;;;2.79;53.64;101805.44;5057505;28;20175;-70
2021/04/25 20:55:00;;;;;;;2.83;1.30;;;;;;;2.79;53.52;101808.97;5054496;28;20234;-71
2021/04/25 20:57:25;;;;;;;2.83;1.07;;;;;;;2.67;54.14;101806.41;5055900;28;20667;-70
2021/04/25 20:59:50;;;;;;;3.70;1.10;;;;;;;2.66;53.99;101806.41;5055960;28;20183;-70
2021/04/25 21:02:16;;;;;;;3.37;1.03;;;;;;;2.63;53.82;101802.03;5054598;28;20652;-70
2021/04/25 21:04:41;;;;;;;5.87;2.40;;;;;;;2.56;53.87;101800.28;5037929;28;20176;-71
2021/04/25 21:07:06;;;;;;;8.37;3.63;;;;;;;2.45;54.50;101794.19;5056356;28;20218;-72
2021/04/25 21:09:32;;;;;;;10.07;4.30;;;;;;;2.33;55.55;101800.41;5056019;28;20182;-71
2021/04/25 21:11:57;;;;;;;5.90;3.30;;;;;;;2.19;55.89;101804.81;5056028;28;20261;-71
2021/04/25 21:14:22;;;;;;;3.57;1.70;;;;;;;2.10;56.53;101804.84;5055721;28;20185;-68
2021/04/25 21:16:48;;;;;;;2.77;1.60;;;;;;;1.97;57.01;101809.28;5055306;28;20176;-68
2021/04/25 21:19:13;;;;;;;2.63;1.10;;;;;;;1.87;56.76;101813.69;5054631;28;20175;-70
2021/04/25 21:21:38;;;;;;;1.77;0.93;;;;;;;1.86;57.04;101808.44;5055393;28;20241;-69
2021/04/25 21:24:04;;;;;;;2.23;0.93;;;;;;;1.86;57.20;101806.69;5056213;28;20254;-71
2021/04/25 21:26:30;;;;;;;3.77;1.30;;;;;;;1.80;57.01;101803.16;5037180;28;20178;-70
2021/04/25 21:28:55;;;;;;;4.10;1.47;;;;;;;1.70;57.60;101809.31;5053915;28;20204;-70
2021/04/25 21:31:20;;;;;;;7.47;1.20;;;;;;;1.65;57.88;101801.41;5055107;28;20199;-70
2021/04/25 21:33:46;;;;;;;2.17;1.00;;;;;;;1.63;58.02;101799.66;5053917;28;20171;-71
2021/04/25 21:36:11;;;;;;;4.10;1.20;;;;;;;1.59;58.68;101800.56;5053869;28;20654;-71
2021/04/25 21:38:37;;;;;;;2.10;1.00;;;;;;;1.52;58.67;101799.69;5070627;28;20243;-70
2021/04/25 21:41:02;;;;;;;2.07;0.80;;;;;;;1.62;58.14;101795.28;5038004;28;20217;-69
2021/04/25 21:43:27;;;;;;;3.10;0.87;;;;;;;1.63;58.15;101791.78;5053433;28;20178;-70
2021/04/25 21:45:53;;;;;;;2.40;0.90;;;;;;;1.63;57.89;101794.41;5053606;28;20237;-69
2021/04/25 21:48:18;;;;;;;2.43;1.27;;;;;;;1.60;58.23;101797.03;5053541;28;20181;-69
2021/04/25 21:50:50;;;;;;;3.80;1.00;;;;;;;1.64;58.00;101788.25;5055093;28;20612;-70
2021/04/25 21:53:15;;;;;;;2.80;1.07;;;;;;;1.75;57.21;101786.50;5037015;28;20257;-69
2021/04/25 21:55:42;;;;;;;2.97;0.80;;;;;;;1.75;57.44;101792.63;5054498;28;20221;-71
2021/04/25 21:58:08;;;;;;;2.97;1.13;;;;;;;1.68;57.62;101785.63;5053304;28;20728;-70
2021/04/25 22:00:48;;;;;;;2.23;0.93;;;;;;;1.64;57.97;101793.53;5054663;28;20202;-69
2021/04/25 22:03:16;;;;;;;1.40;0.80;;;;;;;1.56;58.05;101789.16;5053468;28;20196;-71
2021/04/25 22:05:41;;;;;;;1.07;0.67;;;;;;;1.51;58.15;101793.56;5054414;28;20209;-70
2021/04/25 22:08:07;;;;;;;1.77;0.90;;;;;;;1.59;57.97;101790.03;5054501;28;20622;-70
2021/04/25 22:10:37;;;;;;;4.83;1.00;;;;;;;1.53;57.95;101785.66;5052930;28;20203;-71
2021/04/25 22:13:04;;;;;;;1.73;0.70;;;;;;;1.63;57.65;101787.38;5053249;28;20216;-68
2021/04/25 22:15:30;;;;;;;1.80;0.90;;;;;;;1.63;57.46;101789.16;5052841;28;20185;-68
2021/04/25 22:17:55;;;;;;;1.60;1.00;;;;;;;1.67;57.19;101781.25;5052810;28;20194;-68
2021/04/25 22:20:20;;;;;;;3.00;1.07;;;;;;;1.67;57.43;101780.38;5054005;28;20194;-66
2021/04/25 22:22:46;;;;;;;3.80;1.30;;;;;;;1.68;57.15;101776.84;5054231;28;20280;-67
2021/04/25 22:25:12;;;;;;;1.23;0.90;;;;;;;1.72;57.10;101775.97;5053125;28;20193;-70
2021/04/25 22:27:38;;;;;;;2.27;1.13;;;;;;;1.75;57.19;101776.84;5052492;28;20637;-70
2021/04/25 22:30:10;;;;;;;3.23;1.03;;;;;;;1.83;56.50;101763.66;5069687;28;20329;-71
2021/04/25 22:32:36;;;;;;;2.47;1.30;;;;;;;1.79;57.39;101767.19;5035881;28;20214;-71
2021/04/25 22:35:03;;;;;;;2.53;0.80;;;;;;;1.83;56.45;101758.38;5053675;28;20205;-71
2021/04/25 22:37:28;;;;;;;1.83;0.90;;;;;;;1.81;56.31;101762.78;5053091;28;20198;-71
2021/04/25 22:39:53;;;;;;;2.37;0.90;;;;;;;1.73;56.34;101769.81;5052196;28;20221;-71
2021/04/25 22:42:19;;;;;;;2.17;1.00;;;;;;;1.62;57.35;101766.34;5053576;28;20178;-70
2021/04/25 22:44:44;;;;;;;1.90;0.90;;;;;;;1.65;57.08;101763.69;5053569;28;20261;-71
2021/04/25 22:47:09;;;;;;;2.27;0.70;;;;;;;1.52;57.38;101763.72;5053443;28;20178;-71
2021/04/25 22:49:35;;;;;;;1.57;1.00;;;;;;;1.48;57.43;101767.22;5052186;28;20178;-68
2021/04/25 22:52:00;;;;;;;1.00;0.70;;;;;;;1.45;57.49;101759.31;5053308;28;20205;-68
2021/04/25 22:54:26;;;;;;;2.63;1.20;;;;;;;1.47;57.11;101754.06;5053252;28;20193;-68
2021/04/25 22:56:51;;;;;;;2.30;0.80;;;;;;;1.39;58.12;101761.97;5053701;28;20174;-68
2021/04/25 22:59:17;;;;;;;1.70;1.00;;;;;;;1.40;57.99;101761.09;5053148;28;20595;-68
2021/04/25 23:01:42;;;;;;;1.70;0.67;;;;;;;1.24;58.85;101757.59;5051959;28;20248;-68
2021/04/25 23:04:07;;;;;;;1.20;1.00;;;;;;;1.17;58.82;101754.97;5053256;28;20183;-68
2021/04/25 23:06:33;;;;;;;3.73;1.00;;;;;;;1.14;59.10;101754.97;5052082;28;20639;-68
2021/04/25 23:08:58;;;;;;;2.90;0.90;;;;;;;1.07;58.77;101755.81;5035402;28;20182;-68
2021/04/25 23:11:23;;;;;;;8.73;1.10;;;;;;;1.11;59.17;101757.56;5051790;28;20193;-68
2021/04/25 23:13:49;;;;;;;1.37;0.70;;;;;;;1.03;59.03;101754.06;5053292;28;20178;-68
2021/04/25 23:16:14;;;;;;;5.33;1.07;;;;;;;1.04;58.94;101753.19;5053097;28;20176;-68
2021/04/25 23:18:39;;;;;;;2.63;1.03;;;;;;;0.93;59.50;101751.44;5052885;28;20198;-66
2021/04/25 23:21:05;;;;;;;4.27;0.80;;;;;;;0.89;59.24;101760.19;5053108;28;20237;-68
2021/04/25 23:23:30;;;;;;;3.97;1.00;;;;;;;0.92;58.60;101749.69;5053055;28;20183;-68
2021/04/25 23:25:55;;;;;;;2.80;1.20;;;;;;;0.89;58.88;101757.56;5053060;28;20183;-68
2021/04/25 23:28:21;;;;;;;1.73;1.00;;;;;;;0.89;59.00;101762.81;5053001;28;20299;-68
2021/04/25 23:30:46;;;;;;;2.70;0.90;;;;;;;0.81;59.86;101756.69;5051623;28;20224;-68
2021/04/25 23:33:12;;;;;;;3.10;0.90;;;;;;;0.80;59.57;101760.19;5051910;28;20703;-68
2021/04/25 23:35:37;;;;;;;2.70;0.80;;;;;;;0.73;60.06;101762.78;5052851;28;20211;-67
2021/04/25 23:38:02;;;;;;;1.40;0.77;;;;;;;0.55;60.44;101758.38;5051597;28;20201;-68
2021/04/25 23:40:28;;;;;;;2.00;1.00;;;;;;;0.55;60.95;101763.63;5051387;28;20701;-68
2021/04/25 23:42:53;;;;;;;2.10;0.90;;;;;;;0.53;60.99;101757.50;5051898;28;20180;-68
2021/04/25 23:45:22;;;;;;;3.47;1.00;;;;;;;0.52;60.48;101758.34;5035124;28;20185;-68
2021/04/25 23:47:52;;;;;;;6.33;1.27;;;;;;;0.48;60.85;101761.84;5053899;28;20641;-68
2021/04/25 23:50:19;;;;;;;1.07;0.87;;;;;;;0.65;60.15;101754.00;5055383;28;20247;-68
2021/04/25 23:52:45;;;;;;;2.13;0.97;;;;;;;0.68;59.65;101752.25;5056918;28;20169;-67
2021/04/25 23:55:10;;;;;;;5.63;1.17;;;;;;;0.69;59.84;101746.13;5057037;28;20190;-68
2021/04/25 23:57:36;;;;;;;1.03;0.80;;;;;;;0.63;60.17;101744.38;5057069;28;20204;-68
